Time;durP1;ratioP1;P1;durP2;ratioP2;P2;SDS_P1;SDS_P2;PMS_P1;PMS_P2;Temp;Humidity;BMP_temperature;BMP_pressure;BME280_temperature;BME280_humidity;BME280_pressure;Samples;Min_cycle;Max_cycle;Signal;HPM_P1;HPM_P2
2023/01/04 00:01:12;;;;;;;0.20;0.20;;;17.80;99.90;;;;;;5070515;28;20147;-77
2023/01/04 00:03:39;;;;;;;0.13;0.13;;;17.90;99.90;;;;;;5071558;28;20381;-73
2023/01/04 00:06:06;;;;;;;0.20;0.20;;;17.90;99.90;;;;;;5070658;28;20033;-76
2023/01/04 00:08:32;;;;;;;0.10;0.10;;;17.80;99.90;;;;;;5071989;28;20029;-75
2023/01/04 00:11:04;;;;;;;0.10;0.10;;;17.60;99.90;;;;;;5071720;28;20032;-75
2023/01/04 00:13:30;;;;;;;0.17;0.17;;;17.50;99.90;;;;;;5071435;28;20075;-71
2023/01/04 00:15:57;;;;;;;0.20;0.20;;;17.50;99.90;;;;;;5071527;28;20020;-73
2023/01/04 00:18:23;;;;;;;0.20;0.20;;;17.50;99.90;;;;;;5071561;28;20033;-77
2023/01/04 00:20:49;;;;;;;0.20;0.20;;;17.50;99.90;;;;;;5071945;28;20035;-77
2023/01/04 00:23:14;;;;;;;0.10;0.10;;;17.50;99.90;;;;;;5071722;28;20028;-71
2023/01/04 00:25:40;;;;;;;0.10;0.10;;;17.40;99.90;;;;;;5071503;28;20614;-73
2023/01/04 00:28:06;;;;;;;0.20;0.20;;;17.50;99.90;;;;;;5071569;28;20032;-78
2023/01/04 00:30:32;;;;;;;3.20;1.75;;;17.40;99.90;;;;;;5071374;28;20020;-71
2023/01/04 00:32:58;;;;;;;0.20;0.20;;;17.40;99.90;;;;;;5071162;28;20029;-71
2023/01/04 00:35:24;;;;;;;0.20;0.20;;;17.40;99.90;;;;;;5071407;28;20377;-74
2023/01/04 00:37:50;;;;;;;1.85;1.75;;;17.40;99.90;;;;;;5071283;28;20025;-74
2023/01/04 00:40:16;;;;;;;0.20;0.20;;;17.40;99.90;;;;;;5071288;28;20021;-72
2023/01/04 00:42:41;;;;;;;0.20;0.20;;;17.40;99.90;;;;;;5071263;28;20028;-72
2023/01/04 00:45:07;;;;;;;4.90;1.33;;;17.40;99.90;;;;;;5071137;28;20108;-68
2023/01/04 00:47:33;;;;;;;0.20;0.20;;;17.50;99.90;;;;;;5071254;28;20060;-68
2023/01/04 00:49:58;;;;;;;0.17;0.17;;;17.50;99.90;;;;;;5071213;28;20035;-68
2023/01/04 00:52:24;;;;;;;0.20;0.20;;;17.40;99.90;;;;;;5071208;28;20380;-69
2023/01/04 00:54:50;;;;;;;0.28;0.28;;;17.40;99.90;;;;;;5071543;28;20017;-69
2023/01/04 00:57:16;;;;;;;0.80;0.75;;;17.40;99.90;;;;;;5071419;28;20031;-69
2023/01/04 00:59:41;;;;;;;0.20;0.20;;;17.40;99.90;;;;;;5071173;28;20042;-70
2023/01/04 01:02:07;;;;;;;5.93;2.28;;;17.50;99.90;;;;;;5072611;28;20017;-70
2023/01/04 01:04:33;;;;;;;2.40;1.40;;;17.40;99.90;;;;;;5075154;28;20035;-71
2023/01/04 01:06:59;;;;;;;1.83;0.43;;;17.40;99.90;;;;;;5075163;28;20036;-69
2023/01/04 01:09:24;;;;;;;0.20;0.20;;;17.40;99.90;;;;;;5075790;28;20385;-68
2023/01/04 01:11:52;;;;;;;0.20;0.20;;;17.40;99.90;;;;;;5075682;28;20465;-69
2023/01/04 01:14:21;;;;;;;0.20;0.20;;;17.20;99.90;;;;;;5074699;28;20064;-69
2023/01/04 01:16:47;;;;;;;0.50;0.50;;;17.40;99.90;;;;;;5074877;28;20031;-68
2023/01/04 01:19:13;;;;;;;1.23;1.23;;;17.40;99.90;;;;;;5074880;28;20021;-69
2023/01/04 01:21:39;;;;;;;0.63;0.63;;;17.40;99.90;;;;;;5074797;28;20032;-68
2023/01/04 01:24:05;;;;;;;0.60;0.60;;;17.40;99.90;;;;;;5074970;28;20389;-71
2023/01/04 01:26:31;;;;;;;0.10;0.10;;;17.40;99.90;;;;;;5074671;28;20020;-73
2023/01/04 01:28:58;;;;;;;0.30;0.30;;;17.50;99.90;;;;;;5074790;28;20435;-73
2023/01/04 01:31:26;;;;;;;0.20;0.20;;;17.40;99.90;;;;;;5074624;28;20024;-70
2023/01/04 01:33:54;;;;;;;0.45;0.45;;;17.40;99.90;;;;;;5074402;28;20081;-71
2023/01/04 01:36:22;;;;;;;0.20;0.20;;;17.50;99.90;;;;;;5074665;28;20114;-70
2023/01/04 01:38:48;;;;;;;3.22;1.35;;;17.40;99.90;;;;;;5074509;28;20029;-71
2023/01/04 01:41:31;;;;;;;0.20;0.20;;;17.50;99.90;;;;;;5074253;28;20038;-71
2023/01/04 01:44:25;;;;;;;0.20;0.20;;;17.50;99.90;;;;;;5074345;28;20503;-72
2023/01/04 01:46:54;;;;;;;1.48;0.43;;;17.60;99.90;;;;;;5073939;28;20040;-73
2023/01/04 01:49:31;;;;;;;8.75;2.08;;;17.50;99.90;;;;;;5074138;28;20024;-73
2023/01/04 01:52:00;;;;;;;0.20;0.20;;;17.60;99.90;;;;;;5074265;28;20036;-72
2023/01/04 01:54:31;;;;;;;0.20;0.20;;;17.40;99.90;;;;;;5074117;28;20024;-70
2023/01/04 01:56:59;;;;;;;0.25;0.25;;;17.40;99.90;;;;;;5074096;28;20403;-69
2023/01/04 01:59:26;;;;;;;0.25;0.25;;;17.50;99.90;;;;;;5074052;28;20024;-73
2023/01/04 02:01:52;;;;;;;0.20;0.20;;;17.60;99.90;;;;;;5074056;28;20440;-70
2023/01/04 02:04:17;;;;;;;0.20;0.20;;;17.60;99.90;;;;;;5073844;28;20119;-70
2023/01/04 02:06:48;;;;;;;0.20;0.20;;;17.50;99.90;;;;;;5073675;28;20116;-69
2023/01/04 02:09:15;;;;;;;0.20;0.20;;;17.50;99.90;;;;;;5072679;28;20025;-69
2023/01/04 02:11:41;;;;;;;0.40;0.40;;;17.60;99.90;;;;;;5073894;28;20489;-68
2023/01/04 02:14:26;;;;;;;0.43;0.43;;;17.70;99.90;;;;;;5073346;28;20098;-69
2023/01/04 02:16:59;;;;;;;0.20;0.20;;;17.60;99.90;;;;;;5073700;28;20031;-68
2023/01/04 02:19:50;;;;;;;0.20;0.20;;;17.60;99.90;;;;;;5073417;28;20381;-68
2023/01/04 02:23:07;;;;;;;0.20;0.20;;;17.60;99.90;;;;;;5073823;28;20052;-68
2023/01/04 02:25:55;;;;;;;0.20;0.20;;;17.50;99.90;;;;;;5055562;28;20412;-68
2023/01/04 02:28:55;;;;;;;0.30;0.30;;;17.50;99.90;;;;;;5073598;28;20028;-69
2023/01/04 02:31:39;;;;;;;3.60;1.27;;;17.50;99.90;;;;;;5072020;28;20025;-68
2023/01/04 02:34:19;;;;;;;0.20;0.20;;;17.60;99.90;;;;;;5073384;28;20035;-68
2023/01/04 02:37:05;;;;;;;3.50;1.42;;;17.60;99.90;;;;;;5073461;28;20024;-69
2023/01/04 02:39:56;;;;;;;0.63;0.63;;;17.60;99.90;;;;;;5073352;28;20484;-69
2023/01/04 02:45:31;;;;;;;0.27;0.27;;;17.50;99.90;;;;;;5051351;28;20029;-69
2023/01/04 02:50:56;;;;;;;0.43;0.43;;;17.50;99.90;;;;;;5073263;28;20085;-69
2023/01/04 02:53:32;;;;;;;0.20;0.20;;;17.50;99.90;;;;;;5073011;28;20074;-68
2023/01/04 02:56:36;;;;;;;0.20;0.20;;;17.40;99.90;;;;;;5072955;28;20034;-69
2023/01/04 02:59:32;;;;;;;0.20;0.20;;;17.40;99.90;;;;;;5051153;28;20032;-69
2023/01/04 03:08:22;;;;;;;0.20;0.20;;;17.50;99.90;;;;;;5072997;28;20082;-70
2023/01/04 03:14:02;;;;;;;0.43;0.43;;;17.50;99.90;;;;;;5072452;28;20105;-71
2023/01/04 03:16:30;;;;;;;7.03;3.92;;;17.60;99.90;;;;;;5072782;28;20108;-70
2023/01/04 03:19:03;;;;;;;0.20;0.20;;;17.50;99.90;;;;;;5072694;28;20094;-69
2023/01/04 03:21:31;;;;;;;0.20;0.20;;;17.50;99.90;;;;;;5072997;28;20488;-70
2023/01/04 03:35:37;;;;;;;8.30;0.68;;;17.60;99.90;;;;;;5072722;28;20082;-72
2023/01/04 03:50:28;;;;;;;0.20;0.20;;;17.70;99.90;;;;;;5072541;28;20099;-71
2023/01/04 03:52:55;;;;;;;0.90;0.88;;;18.00;99.90;;;;;;5072019;28;20052;-70
2023/01/04 03:55:23;;;;;;;3.03;1.55;;;17.90;99.90;;;;;;5071862;28;20495;-70
2023/01/04 03:57:49;;;;;;;0.28;0.28;;;17.80;99.90;;;;;;5071867;28;20469;-70
2023/01/04 04:00:17;;;;;;;0.50;0.50;;;17.70;99.90;;;;;;5071666;28;20424;-70
2023/01/04 04:02:45;;;;;;;1.55;1.55;;;17.70;99.90;;;;;;5071677;28;20023;-70
2023/01/04 04:10:47;;;;;;;0.43;0.43;;;17.80;99.90;;;;;;5071930;28;20104;-70
2023/01/04 04:13:13;;;;;;;0.20;0.20;;;17.90;99.90;;;;;;5071429;28;20460;-68
2023/01/04 04:15:38;;;;;;;0.20;0.20;;;17.80;99.90;;;;;;5071590;28;20500;-69
2023/01/04 04:18:04;;;;;;;0.32;0.32;;;17.80;99.90;;;;;;5071269;28;20024;-69
2023/01/04 04:20:30;;;;;;;0.50;0.50;;;18.00;99.90;;;;;;5071386;28;20033;-69
2023/01/04 04:22:56;;;;;;;0.68;0.68;;;18.00;99.90;;;;;;5070032;28;20028;-69
2023/01/04 04:25:21;;;;;;;1.33;1.23;;;17.80;99.90;;;;;;5071349;28;20017;-69
2023/01/04 04:27:47;;;;;;;8.57;1.55;;;18.00;99.90;;;;;;5071056;28;20051;-68
2023/01/04 04:30:13;;;;;;;0.70;0.70;;;18.00;99.90;;;;;;5071217;28;20031;-69
2023/01/04 04:32:39;;;;;;;0.50;0.50;;;17.90;99.90;;;;;;5071048;28;20504;-69
2023/01/04 04:35:05;;;;;;;0.20;0.20;;;18.00;99.90;;;;;;5071434;28;20025;-69
2023/01/04 04:37:31;;;;;;;2.72;1.40;;;17.90;99.90;;;;;;5070447;28;20036;-69
2023/01/04 04:39:57;;;;;;;1.85;1.75;;;18.00;99.90;;;;;;5071392;28;20535;-69
2023/01/04 04:42:23;;;;;;;0.20;0.20;;;18.10;99.90;;;;;;5071068;28;20029;-69
2023/01/04 04:44:49;;;;;;;2.75;1.13;;;18.10;99.90;;;;;;5071124;28;20035;-70
2023/01/04 04:47:14;;;;;;;1.80;1.65;;;18.00;99.90;;;;;;5071118;28;20537;-69
2023/01/04 04:49:40;;;;;;;0.40;0.40;;;18.00;99.90;;;;;;5070969;28;20017;-68
2023/01/04 04:52:06;;;;;;;1.95;1.33;;;17.90;99.90;;;;;;5071130;28;20047;-68
2023/01/04 04:54:31;;;;;;;0.43;0.43;;;18.10;99.90;;;;;;5070953;28;20039;-68
2023/01/04 04:56:57;;;;;;;0.47;0.47;;;18.10;99.90;;;;;;5071068;28;20033;-69
2023/01/04 04:59:23;;;;;;;0.20;0.20;;;18.00;99.90;;;;;;5071152;28;20021;-69
2023/01/04 05:01:48;;;;;;;8.85;4.13;;;18.00;99.90;;;;;;5070951;28;20047;-69
2023/01/04 05:04:15;;;;;;;3.42;3.22;;;18.20;99.90;;;;;;5070832;28;20063;-69
2023/01/04 05:06:48;;;;;;;0.20;0.20;;;18.20;99.90;;;;;;5070907;28;20067;-68
2023/01/04 05:09:15;;;;;;;0.28;0.28;;;18.10;99.90;;;;;;5070943;28;20021;-69
2023/01/04 05:14:25;;;;;;;1.25;1.17;;;18.20;99.90;;;;;;5067381;28;20114;-70
2023/01/04 05:16:51;;;;;;;0.28;0.28;;;18.20;99.90;;;;;;5056647;28;20473;-69
2023/01/04 05:19:17;;;;;;;3.35;1.83;;;18.20;99.90;;;;;;5051099;28;20075;-69
2023/01/04 05:21:43;;;;;;;0.47;0.45;;;18.20;99.90;;;;;;5070831;28;20103;-69
2023/01/04 05:24:11;;;;;;;1.00;1.00;;;18.20;99.90;;;;;;5069444;28;20032;-69
2023/01/04 05:26:37;;;;;;;1.98;1.90;;;18.20;99.90;;;;;;5071000;28;20041;-70
2023/01/04 05:29:03;;;;;;;0.20;0.20;;;18.20;99.90;;;;;;5071071;28;20051;-70
2023/01/04 05:31:29;;;;;;;0.30;0.30;;;18.20;99.90;;;;;;5069178;28;20037;-70
2023/01/04 05:33:54;;;;;;;0.20;0.20;;;18.20;99.90;;;;;;5050583;28;20516;-69
2023/01/04 05:36:20;;;;;;;0.68;0.68;;;18.20;99.90;;;;;;5050549;28;20048;-69
2023/01/04 05:38:46;;;;;;;0.20;0.20;;;18.20;99.90;;;;;;5050676;28;20028;-70
2023/01/04 05:43:55;;;;;;;1.65;1.65;;;18.20;99.90;;;;;;5050420;28;20070;-72
2023/01/04 05:46:21;;;;;;;0.20;0.20;;;18.20;99.90;;;;;;5050517;28;20021;-69
2023/01/04 05:48:47;;;;;;;0.80;0.80;;;18.10;99.90;;;;;;5052298;28;20036;-69
2023/01/04 05:51:13;;;;;;;0.20;0.20;;;18.10;99.90;;;;;;5054554;28;20059;-71
2023/01/04 05:53:38;;;;;;;0.20;0.20;;;18.30;99.90;;;;;;5054369;28;20021;-70
2023/01/04 05:56:04;;;;;;;0.30;0.30;;;18.20;99.90;;;;;;5070869;28;20358;-70
2023/01/04 05:58:30;;;;;;;2.13;1.92;;;18.40;99.90;;;;;;5074422;28;20044;-70
2023/01/04 06:00:56;;;;;;;0.47;0.38;;;18.30;99.90;;;;;;5074128;28;20461;-69
2023/01/04 06:03:21;;;;;;;0.17;0.17;;;18.40;99.90;;;;;;5067263;28;20036;-68
2023/01/04 06:05:51;;;;;;;1.50;1.50;;;18.40;99.90;;;;;;5061062;28;20028;-69
2023/01/04 06:08:16;;;;;;;0.20;0.20;;;18.30;99.90;;;;;;5054871;28;20025;-70
2023/01/04 06:10:43;;;;;;;0.30;0.30;;;18.30;99.90;;;;;;5074315;28;20430;-68
2023/01/04 06:13:09;;;;;;;0.47;0.47;;;18.20;99.90;;;;;;5073876;28;20648;-69
2023/01/04 06:15:34;;;;;;;6.03;0.95;;;18.20;99.90;;;;;;5074536;28;20024;-70
2023/01/04 06:18:00;;;;;;;0.50;0.50;;;18.30;99.90;;;;;;5073894;28;20033;-69
2023/01/04 06:20:26;;;;;;;2.72;2.10;;;18.40;99.90;;;;;;5053444;28;20024;-69
2023/01/04 06:22:52;;;;;;;3.53;2.15;;;18.40;99.90;;;;;;5063839;28;20527;-69
2023/01/04 06:25:17;;;;;;;0.40;0.40;;;18.40;99.90;;;;;;5053472;28;20108;-68
2023/01/04 06:27:43;;;;;;;0.20;0.20;;;18.40;99.90;;;;;;5068251;28;20036;-70
2023/01/04 06:30:09;;;;;;;0.20;0.20;;;18.50;99.90;;;;;;5057956;28;20036;-71
2023/01/04 06:32:35;;;;;;;0.90;0.90;;;18.50;99.90;;;;;;5053444;28;20039;-69
2023/01/04 06:35:01;;;;;;;0.22;0.22;;;18.50;99.90;;;;;;5053344;28;20402;-70
2023/01/04 06:37:27;;;;;;;4.28;1.63;;;18.30;99.90;;;;;;5052029;28;20166;-69
2023/01/04 06:39:52;;;;;;;0.20;0.20;;;18.30;99.90;;;;;;5052956;28;20049;-69
2023/01/04 06:45:03;;;;;;;0.20;0.20;;;18.40;99.90;;;;;;5053192;28;20071;-69
2023/01/04 06:47:29;;;;;;;0.35;0.35;;;18.30;99.90;;;;;;5052939;28;20584;-70
2023/01/04 06:49:55;;;;;;;0.20;0.20;;;18.60;99.90;;;;;;5052997;28;20029;-73
2023/01/04 06:52:20;;;;;;;7.85;3.00;;;18.50;99.90;;;;;;5052923;28;20071;-71
2023/01/04 06:54:46;;;;;;;0.28;0.28;;;18.30;99.90;;;;;;5052637;28;20090;-71
2023/01/04 06:57:12;;;;;;;0.10;0.10;;;18.40;99.90;;;;;;5052540;28;20048;-69
2023/01/04 06:59:38;;;;;;;0.20;0.20;;;18.50;99.90;;;;;;5051795;28;20104;-70
2023/01/04 07:02:03;;;;;;;24.55;1.23;;;18.50;99.90;;;;;;5067852;28;20052;-70
2023/01/04 07:04:29;;;;;;;0.10;0.10;;;18.70;99.90;;;;;;5065176;28;20389;-69
2023/01/04 07:06:56;;;;;;;2.65;2.40;;;18.70;99.90;;;;;;5072375;28;20040;-71
2023/01/04 07:09:22;;;;;;;0.68;0.68;;;18.50;99.90;;;;;;5072665;28;20013;-71
2023/01/04 07:11:47;;;;;;;0.20;0.20;;;18.60;99.90;;;;;;5049352;28;20048;-69
2023/01/04 07:14:13;;;;;;;1.95;1.85;;;18.50;99.90;;;;;;5059192;28;20439;-69
2023/01/04 07:16:39;;;;;;;0.20;0.20;;;18.50;99.90;;;;;;5064680;28;20032;-72
2023/01/04 07:19:07;;;;;;;2.05;1.95;;;18.60;99.90;;;;;;5071701;28;20016;-72
2023/01/04 07:21:33;;;;;;;0.20;0.20;;;18.50;99.90;;;;;;5072353;28;20040;-72
2023/01/04 07:23:58;;;;;;;1.17;0.98;;;18.50;99.90;;;;;;5058922;28;20037;-70
2023/01/04 07:26:24;;;;;;;1.17;1.17;;;18.70;99.90;;;;;;5054212;28;20043;-70
2023/01/04 07:31:34;;;;;;;5.40;4.03;;;18.80;99.90;;;;;;5052330;28;20048;-71
2023/01/04 07:33:59;;;;;;;34.42;5.35;;;18.70;99.90;;;;;;5053550;28;20028;-71
2023/01/04 07:36:25;;;;;;;23.17;4.10;;;18.50;99.90;;;;;;5052255;28;20525;-72
2023/01/04 07:38:50;;;;;;;22.42;3.50;;;18.80;99.90;;;;;;5052385;28;20095;-70
2023/01/04 07:41:16;;;;;;;35.63;4.28;;;18.70;99.90;;;;;;5055475;28;20094;-70
2023/01/04 07:43:42;;;;;;;18.65;5.28;;;18.50;99.90;;;;;;5068107;28;20021;-70
2023/01/04 07:46:08;;;;;;;34.08;5.35;;;18.80;99.90;;;;;;5071918;28;20389;-72
2023/01/04 07:48:33;;;;;;;16.63;3.75;;;18.60;99.90;;;;;;5070849;28;20028;-72
2023/01/04 07:50:59;;;;;;;35.60;4.60;;;18.60;99.90;;;;;;5071816;28;20020;-71
2023/01/04 07:53:25;;;;;;;32.53;3.83;;;18.70;99.90;;;;;;5054435;28;20482;-72
2023/01/04 07:55:55;;;;;;;18.75;3.85;;;18.70;99.90;;;;;;5051938;28;20477;-71
2023/01/04 07:58:21;;;;;;;17.83;3.10;;;18.90;99.90;;;;;;5051326;28;20025;-73
2023/01/04 08:00:47;;;;;;;22.38;3.75;;;18.90;99.90;;;;;;5052048;28;20100;-71
2023/01/04 08:03:13;;;;;;;21.42;3.95;;;18.80;99.90;;;;;;5052580;28;20470;-71
2023/01/04 08:05:38;;;;;;;19.25;2.65;;;18.90;99.90;;;;;;5052484;28;20067;-69
2023/01/04 08:08:04;;;;;;;19.02;2.63;;;18.90;99.90;;;;;;5054656;28;20340;-72
2023/01/04 08:10:30;;;;;;;20.08;3.38;;;18.80;99.90;;;;;;5067146;28;20032;-70
2023/01/04 08:12:58;;;;;;;19.65;3.38;;;18.90;99.90;;;;;;5071473;28;20101;-71
2023/01/04 08:15:25;;;;;;;14.13;2.63;;;18.70;99.90;;;;;;5071498;28;20032;-73
2023/01/04 08:17:51;;;;;;;14.98;2.22;;;18.80;99.90;;;;;;5056214;28;20033;-72
2023/01/04 08:20:17;;;;;;;13.48;2.33;;;18.90;99.90;;;;;;5051154;28;20024;-70
2023/01/04 08:22:43;;;;;;;16.60;2.88;;;18.70;99.90;;;;;;5050989;28;20395;-72
2023/01/04 08:25:09;;;;;;;15.27;2.05;;;19.00;99.90;;;;;;5068313;28;20025;-69
2023/01/04 08:27:34;;;;;;;21.05;2.90;;;18.70;99.90;;;;;;5071121;28;20036;-71
2023/01/04 08:30:00;;;;;;;15.90;2.30;;;19.00;99.90;;;;;;5070287;28;20035;-71
2023/01/04 08:32:26;;;;;;;20.40;2.83;;;18.70;99.90;;;;;;5071261;28;20048;-69
2023/01/04 08:34:53;;;;;;;19.10;3.08;;;18.90;99.90;;;;;;5071144;28;20020;-71
2023/01/04 08:37:19;;;;;;;18.35;2.95;;;18.80;99.90;;;;;;5066651;28;20106;-70
2023/01/04 08:39:45;;;;;;;11.70;3.03;;;18.80;99.90;;;;;;5065532;28;20488;-70
2023/01/04 08:42:11;;;;;;;16.35;3.17;;;19.00;99.90;;;;;;5071126;28;20544;-70
2023/01/04 08:44:37;;;;;;;11.63;2.03;;;18.70;99.90;;;;;;5071198;28;20373;-73
2023/01/04 08:47:03;;;;;;;17.80;2.70;;;18.70;99.90;;;;;;5071397;28;20128;-72
2023/01/04 08:49:28;;;;;;;22.92;2.83;;;19.00;99.90;;;;;;5071239;28;20028;-71
2023/01/04 08:51:54;;;;;;;23.13;2.95;;;18.70;99.90;;;;;;5071088;28;20029;-71
2023/01/04 08:54:21;;;;;;;30.17;4.97;;;18.70;99.90;;;;;;5071029;28;20492;-71
2023/01/04 08:56:47;;;;;;;25.50;4.65;;;18.80;99.90;;;;;;5071033;28;20460;-72
2023/01/04 08:59:14;;;;;;;21.55;3.45;;;18.70;99.90;;;;;;5070923;28;20025;-71
2023/01/04 09:01:40;;;;;;;21.63;3.13;;;19.00;99.90;;;;;;5071045;28;20025;-71
2023/01/04 09:04:06;;;;;;;23.85;3.60;;;18.90;99.90;;;;;;5071088;28;20024;-72
2023/01/04 09:06:32;;;;;;;27.10;3.30;;;18.80;99.90;;;;;;5070922;28;20032;-73
2023/01/04 09:08:58;;;;;;;17.95;3.60;;;19.00;99.90;;;;;;5071129;28;20016;-72
2023/01/04 09:11:24;;;;;;;14.32;2.92;;;18.80;99.90;;;;;;5069548;28;20025;-71
2023/01/04 09:13:57;;;;;;;21.90;4.05;;;19.10;99.90;;;;;;5070605;28;20045;-72
2023/01/04 09:16:23;;;;;;;18.85;2.78;;;19.00;99.90;;;;;;5071044;28;20039;-72
2023/01/04 09:18:49;;;;;;;15.48;3.58;;;18.90;99.90;;;;;;5070941;28;20016;-71
2023/01/04 09:21:19;;;;;;;13.80;2.67;;;18.90;99.90;;;;;;5070786;28;20036;-71
2023/01/04 09:23:46;;;;;;;21.90;2.85;;;19.10;99.90;;;;;;5073477;28;20048;-70
2023/01/04 09:26:21;;;;;;;25.27;3.20;;;18.80;99.90;;;;;;5074612;28;20036;-71
2023/01/04 09:28:51;;;;;;;22.52;2.58;;;18.90;99.90;;;;;;5074691;28;20028;-71
2023/01/04 09:31:19;;;;;;;15.43;3.00;;;19.10;99.90;;;;;;5069648;28;20583;-70
2023/01/04 09:33:45;;;;;;;26.30;2.90;;;18.90;99.90;;;;;;5072831;28;20029;-71
2023/01/04 09:36:14;;;;;;;24.90;2.63;;;19.10;99.90;;;;;;5057614;28;20032;-72
2023/01/04 09:38:40;;;;;;;15.65;3.97;;;19.00;99.90;;;;;;5054794;28;20033;-71
2023/01/04 09:41:12;;;;;;;23.48;3.30;;;19.10;99.90;;;;;;5054594;28;20032;-74
2023/01/04 09:43:49;;;;;;;25.52;3.63;;;19.10;99.90;;;;;;5054084;28;20441;-73
2023/01/04 09:46:33;;;;;;;29.95;4.43;;;19.20;99.90;;;;;;5055484;28;20100;-74
2023/01/04 09:49:20;;;;;;;17.85;3.25;;;19.00;99.90;;;;;;5051799;28;20476;-71
2023/01/04 09:52:10;;;;;;;14.15;2.15;;;19.10;99.90;;;;;;5065275;28;20035;-72
2023/01/04 09:54:35;;;;;;;17.92;3.13;;;18.60;99.90;;;;;;5056367;28;20024;-73
2023/01/04 09:57:02;;;;;;;22.55;3.30;;;18.90;99.90;;;;;;5065297;28;20031;-76
2023/01/04 09:59:33;;;;;;;21.58;4.47;;;18.90;99.90;;;;;;5072670;28;20032;-73
2023/01/04 10:02:10;;;;;;;25.98;3.05;;;18.90;99.90;;;;;;5070200;28;20025;-72
2023/01/04 10:04:42;;;;;;;22.48;2.83;;;18.90;99.90;;;;;;5073812;28;20025;-72
2023/01/04 10:07:27;;;;;;;29.20;3.38;;;18.90;99.90;;;;;;5074261;28;20032;-71
2023/01/04 10:09:53;;;;;;;26.08;3.75;;;19.00;99.90;;;;;;5073209;28;20085;-72
2023/01/04 10:12:36;;;;;;;28.35;4.68;;;19.00;99.90;;;;;;5073437;28;20381;-70
2023/01/04 10:15:20;;;;;;;36.40;4.10;;;19.10;99.90;;;;;;5073794;28;20074;-71
2023/01/04 10:18:08;;;;;;;26.55;3.75;;;19.10;99.90;;;;;;5064421;28;20199;-71
2023/01/04 10:20:52;;;;;;;21.88;4.93;;;18.90;99.90;;;;;;5053448;28;20113;-71
2023/01/04 10:23:24;;;;;;;23.52;3.65;;;19.00;99.90;;;;;;5053700;28;20068;-71
2023/01/04 10:26:01;;;;;;;31.00;4.85;;;19.10;99.90;;;;;;5053685;28;20043;-71
2023/01/04 10:28:54;;;;;;;41.10;5.60;;;19.00;99.90;;;;;;5053481;28;20029;-71
2023/01/04 10:31:41;;;;;;;29.52;4.47;;;19.00;99.90;;;;;;5053613;28;20040;-72
2023/01/04 10:34:29;;;;;;;29.88;4.53;;;19.00;99.90;;;;;;5053740;28;20100;-71
2023/01/04 10:37:12;;;;;;;34.20;4.90;;;19.00;99.90;;;;;;5060318;28;20028;-72
2023/01/04 10:39:39;;;;;;;36.25;5.00;;;18.90;99.90;;;;;;5053257;28;20025;-71
2023/01/04 10:42:27;;;;;;;26.17;4.28;;;19.00;99.90;;;;;;5053357;28;20024;-70
2023/01/04 10:45:04;;;;;;;32.08;4.53;;;18.90;99.90;;;;;;5066246;28;20039;-72
2023/01/04 10:47:58;;;;;;;39.78;4.95;;;19.00;99.90;;;;;;5072985;28;20044;-72
2023/01/04 10:50:27;;;;;;;29.23;5.68;;;19.00;99.90;;;;;;5072977;28;20023;-72
2023/01/04 10:53:09;;;;;;;23.38;5.75;;;18.90;99.90;;;;;;5062492;28;20107;-71
2023/01/04 10:56:01;;;;;;;23.20;3.40;;;19.00;99.90;;;;;;5072918;28;20071;-72
2023/01/04 10:58:48;;;;;;;24.05;6.13;;;18.90;99.90;;;;;;5060743;28;20036;-70
2023/01/04 11:01:28;;;;;;;23.65;4.47;;;19.10;99.90;;;;;;5072944;28;20043;-73
2023/01/04 11:04:12;;;;;;;32.78;6.18;;;19.00;99.90;;;;;;5060557;28;20013;-71
2023/01/04 11:06:45;;;;;;;35.92;5.55;;;19.00;99.90;;;;;;5055991;28;20382;-72
2023/01/04 11:09:17;;;;;;;39.45;4.85;;;19.10;99.90;;;;;;5055923;28;20024;-72
2023/01/04 11:11:44;;;;;;;;;;;19.10;99.90;;;;;;5053868;28;20033;-70
2023/01/04 11:14:11;;;;;;;32.58;7.40;;;19.00;99.90;;;;;;5053356;28;19920;-70
2023/01/04 11:16:39;;;;;;;26.65;6.10;;;19.10;99.90;;;;;;5070683;28;20493;-71
2023/01/04 11:19:07;;;;;;;24.83;4.43;;;19.00;99.90;;;;;;5063944;28;20486;-72
2023/01/04 11:22:04;;;;;;;23.58;3.58;;;19.00;99.90;;;;;;5053414;28;20020;-72
2023/01/04 11:24:31;;;;;;;30.13;4.72;;;19.20;99.90;;;;;;5054078;28;20025;-75
2023/01/04 11:27:06;;;;;;;21.90;3.63;;;19.20;99.90;;;;;;5053496;28;20128;-71
2023/01/04 11:29:44;;;;;;;19.05;2.70;;;19.10;99.90;;;;;;5054876;28;20052;-71
2023/01/04 11:32:23;;;;;;;19.27;4.18;;;19.10;99.90;;;;;;5052889;28;20029;-70
2023/01/04 11:34:53;;;;;;;27.13;3.10;;;19.10;99.90;;;;;;5052568;28;20043;-71
2023/01/04 11:37:28;;;;;;;19.98;4.57;;;19.20;99.90;;;;;;5053724;28;20603;-72
2023/01/04 11:40:19;;;;;;;19.83;3.70;;;19.10;99.90;;;;;;5052275;28;20029;-71
2023/01/04 11:43:07;;;;;;;18.57;3.37;;;19.20;99.90;;;;;;5052014;28;20040;-71
2023/01/04 11:45:34;;;;;;;19.55;3.28;;;19.20;99.90;;;;;;5046257;28;20488;-71
2023/01/04 11:47:59;;;;;;;22.52;4.13;;;19.10;99.90;;;;;;5072448;28;20093;-72
2023/01/04 11:50:40;;;;;;;15.15;5.00;;;19.10;99.90;;;;;;5051288;28;20029;-69
2023/01/04 11:53:28;;;;;;;32.33;4.22;;;19.00;99.90;;;;;;5052114;28;20021;-72
2023/01/04 11:56:13;;;;;;;25.70;4.22;;;19.00;99.90;;;;;;5061483;28;20386;-71
2023/01/04 11:58:40;;;;;;;26.20;3.72;;;18.90;99.90;;;;;;5056576;28;20029;-73
2023/01/04 12:01:22;;;;;;;28.33;4.43;;;18.90;99.90;;;;;;5051929;28;20025;-72
2023/01/04 12:03:47;;;;;;;15.90;2.53;;;18.90;99.90;;;;;;5052703;28;20021;-73
2023/01/04 12:06:35;;;;;;;24.90;5.40;;;19.00;99.90;;;;;;5062716;28;20285;-71
2023/01/04 12:09:02;;;;;;;19.88;4.05;;;18.90;99.90;;;;;;5071801;28;20419;-70
2023/01/04 12:11:38;;;;;;;26.00;4.88;;;18.90;99.90;;;;;;5072400;28;20040;-70
2023/01/04 12:14:22;;;;;;;20.92;3.83;;;18.80;99.90;;;;;;5071942;28;20139;-70
2023/01/04 12:16:56;;;;;;;36.58;6.57;;;18.90;99.90;;;;;;5072153;28;20680;-70
2023/01/04 12:19:23;;;;;;;35.38;5.30;;;18.80;99.90;;;;;;5069740;28;20031;-70
2023/01/04 12:21:52;;;;;;;28.95;5.47;;;18.60;99.90;;;;;;5069484;28;20485;-70
2023/01/04 12:24:23;;;;;;;35.08;6.60;;;18.60;99.90;;;;;;5054105;28;20028;-70
2023/01/04 12:26:51;;;;;;;39.92;5.05;;;18.70;99.90;;;;;;5051668;28;20036;-70
2023/01/04 12:29:22;;;;;;;35.67;5.40;;;18.50;99.90;;;;;;5051593;28;20032;-70
2023/01/04 12:32:04;;;;;;;38.97;4.93;;;18.50;99.90;;;;;;5052296;28;20027;-70
2023/01/04 12:34:30;;;;;;;28.60;5.15;;;18.50;99.90;;;;;;5058258;28;20033;-70
2023/01/04 12:36:58;;;;;;;30.20;6.13;;;18.30;99.90;;;;;;5057752;28;20078;-68
2023/01/04 12:39:28;;;;;;;26.98;4.57;;;18.30;99.90;;;;;;5070297;28;20078;-69
2023/01/04 12:41:59;;;;;;;38.95;6.05;;;18.40;99.90;;;;;;5071296;28;20028;-69
2023/01/04 12:44:42;;;;;;;37.65;6.72;;;18.20;99.90;;;;;;5071018;28;20016;-69
2023/01/04 12:50:22;;;;;;;33.67;5.60;;;17.90;99.90;;;;;;5070224;28;20071;-71
2023/01/04 12:52:59;;;;;;;25.95;5.68;;;17.80;99.90;;;;;;5058933;28;20021;-71
2023/01/04 12:55:46;;;;;;;38.90;6.97;;;17.80;99.90;;;;;;5050974;28;20423;-71
2023/01/04 12:58:27;;;;;;;32.13;6.13;;;17.80;99.90;;;;;;5057871;28;20024;-70
2023/01/04 13:00:53;;;;;;;45.08;6.80;;;17.70;99.90;;;;;;5055109;28;20049;-70
2023/01/04 13:03:18;;;;;;;37.40;7.07;;;17.70;99.90;;;;;;5055232;28;20044;-71
2023/01/04 13:05:58;;;;;;;43.15;6.40;;;17.80;99.90;;;;;;5070122;28;20033;-70
2023/01/04 13:08:24;;;;;;;43.42;7.60;;;17.70;99.90;;;;;;5074426;28;20052;-69
2023/01/04 13:10:52;;;;;;;42.05;7.28;;;17.60;99.90;;;;;;5074780;28;20028;-71
2023/01/04 13:13:18;;;;;;;49.38;7.35;;;17.50;99.90;;;;;;5063261;28;20228;-70
2023/01/04 13:16:05;;;;;;;46.72;7.78;;;17.50;99.90;;;;;;5054745;28;20017;-71
2023/01/04 13:18:35;;;;;;;34.10;7.80;;;17.50;99.90;;;;;;5054825;28;20025;-72
2023/01/04 13:21:10;;;;;;;45.92;7.30;;;17.40;99.90;;;;;;5054746;28;20029;-70
2023/01/04 13:23:37;;;;;;;49.20;7.05;;;17.40;99.90;;;;;;5057103;28;20074;-68
2023/01/04 13:26:30;;;;;;;35.72;8.20;;;17.30;99.90;;;;;;5053594;28;20063;-67
2023/01/04 13:29:14;;;;;;;42.60;7.70;;;17.20;99.90;;;;;;5058412;28;20025;-68
2023/01/04 13:32:00;;;;;;;60.25;9.70;;;17.20;99.90;;;;;;5074399;28;20494;-69
2023/01/04 13:34:35;;;;;;;46.53;6.88;;;17.20;99.90;;;;;;5074095;28;20028;-69
2023/01/04 13:37:09;;;;;;;54.10;7.90;;;17.10;99.90;;;;;;5067776;28;20032;-69
2023/01/04 13:39:44;;;;;;;56.67;8.50;;;17.10;99.90;;;;;;5058695;28;20026;-68
2023/01/04 13:42:32;;;;;;;50.10;7.93;;;17.10;99.90;;;;;;5066240;28;20060;-69
2023/01/04 13:45:30;;;;;;;53.72;9.13;;;17.00;99.90;;;;;;5060773;28;20029;-68
2023/01/04 13:48:01;;;;;;;48.25;8.55;;;17.00;99.90;;;;;;5058419;28;20033;-70
2023/01/04 13:50:48;;;;;;;41.17;6.22;;;16.90;99.90;;;;;;5062240;28;20051;-69
2023/01/04 13:53:21;;;;;;;65.95;7.55;;;16.90;99.90;;;;;;5057404;28;20036;-71
2023/01/04 13:55:52;;;;;;;52.38;7.60;;;17.00;99.90;;;;;;5060387;28;20047;-69
2023/01/04 13:58:21;;;;;;;59.35;7.18;;;17.00;99.90;;;;;;5064602;28;20032;-69
2023/01/04 14:00:56;;;;;;;46.78;7.43;;;16.90;99.90;;;;;;5053625;28;20509;-68